sensor_id;sensor_type;location;lat;lon;timestamp;P1;durP1;ratioP1;P2;durP2;ratioP2
357;SDS011;167;47.558;7.602;2023-06-24T00:02:08;5.23;;;4.23;;
357;SDS011;167;47.558;7.602;2023-06-24T00:04:34;4.40;;;4.10;;
357;SDS011;167;47.558;7.602;2023-06-24T00:07:00;4.60;;;4.30;;
357;SDS011;167;47.558;7.602;2023-06-24T00:09:26;5.10;;;4.70;;
357;SDS011;167;47.558;7.602;2023-06-24T00:11:53;5.53;;;5.13;;
357;SDS011;167;47.558;7.602;2023-06-24T00:14:20;4.80;;;4.50;;
357;SDS011;167;47.558;7.602;2023-06-24T00:16:47;4.27;;;4.03;;
357;SDS011;167;47.558;7.602;2023-06-24T00:19:21;6.13;;;4.73;;
357;SDS011;167;47.558;7.602;2023-06-24T00:21:50;5.20;;;4.00;;
357;SDS011;167;47.558;7.602;2023-06-24T00:24:17;4.17;;;3.87;;
357;SDS011;167;47.558;7.602;2023-06-24T00:26:44;4.50;;;4.10;;
357;SDS011;167;47.558;7.602;2023-06-24T00:29:10;6.27;;;5.20;;
357;SDS011;167;47.558;7.602;2023-06-24T00:31:36;5.23;;;4.73;;
357;SDS011;167;47.558;7.602;2023-06-24T00:34:02;5.10;;;4.70;;
357;SDS011;167;47.558;7.602;2023-06-24T00:36:29;4.50;;;4.20;;
357;SDS011;167;47.558;7.602;2023-06-24T00:38:57;5.27;;;4.87;;
357;SDS011;167;47.558;7.602;2023-06-24T00:41:26;5.20;;;4.73;;
357;SDS011;167;47.558;7.602;2023-06-24T00:43:53;4.70;;;4.40;;
357;SDS011;167;47.558;7.602;2023-06-24T00:46:19;4.10;;;3.90;;
357;SDS011;167;47.558;7.602;2023-06-24T00:48:45;5.03;;;4.37;;
357;SDS011;167;47.558;7.602;2023-06-24T00:51:11;4.57;;;4.27;;
357;SDS011;167;47.558;7.602;2023-06-24T00:53:37;5.60;;;5.20;;
357;SDS011;167;47.558;7.602;2023-06-24T00:56:04;5.27;;;4.87;;
357;SDS011;167;47.558;7.602;2023-06-24T00:58:31;5.40;;;5.00;;
357;SDS011;167;47.558;7.602;2023-06-24T01:00:57;5.37;;;4.97;;
357;SDS011;167;47.558;7.602;2023-06-24T01:03:24;4.63;;;4.23;;
357;SDS011;167;47.558;7.602;2023-06-24T01:05:50;6.40;;;5.90;;
357;SDS011;167;47.558;7.602;2023-06-24T01:08:17;5.07;;;4.67;;
357;SDS011;167;47.558;7.602;2023-06-24T01:10:44;4.40;;;4.10;;
357;SDS011;167;47.558;7.602;2023-06-24T01:13:10;5.20;;;4.77;;
357;SDS011;167;47.558;7.602;2023-06-24T01:15:37;4.60;;;4.20;;
357;SDS011;167;47.558;7.602;2023-06-24T01:18:07;4.43;;;4.13;;
357;SDS011;167;47.558;7.602;2023-06-24T01:20:55;4.67;;;4.37;;
357;SDS011;167;47.558;7.602;2023-06-24T01:23:26;5.37;;;4.87;;
357;SDS011;167;47.558;7.602;2023-06-24T01:26:14;5.07;;;4.67;;
357;SDS011;167;47.558;7.602;2023-06-24T01:31:29;5.07;;;4.63;;
357;SDS011;167;47.558;7.602;2023-06-24T01:36:44;4.80;;;4.50;;
357;SDS011;167;47.558;7.602;2023-06-24T01:39:11;12.60;;;11.50;;
357;SDS011;167;47.558;7.602;2023-06-24T01:41:43;4.80;;;4.50;;
357;SDS011;167;47.558;7.602;2023-06-24T01:44:10;5.23;;;4.83;;
357;SDS011;167;47.558;7.602;2023-06-24T01:46:37;5.90;;;5.43;;
357;SDS011;167;47.558;7.602;2023-06-24T01:49:04;4.80;;;4.40;;
357;SDS011;167;47.558;7.602;2023-06-24T01:51:32;4.80;;;4.50;;
357;SDS011;167;47.558;7.602;2023-06-24T01:54:02;7.80;;;7.20;;
357;SDS011;167;47.558;7.602;2023-06-24T01:56:28;6.03;;;5.43;;
357;SDS011;167;47.558;7.602;2023-06-24T01:58:55;5.30;;;4.90;;
357;SDS011;167;47.558;7.602;2023-06-24T02:01:22;5.07;;;4.73;;
357;SDS011;167;47.558;7.602;2023-06-24T02:03:48;5.80;;;5.30;;
357;SDS011;167;47.558;7.602;2023-06-24T02:06:15;5.20;;;4.80;;
357;SDS011;167;47.558;7.602;2023-06-24T02:08:42;6.50;;;5.50;;
357;SDS011;167;47.558;7.602;2023-06-24T02:11:09;5.90;;;5.40;;
357;SDS011;167;47.558;7.602;2023-06-24T02:13:36;6.80;;;5.87;;
357;SDS011;167;47.558;7.602;2023-06-24T02:16:03;6.43;;;5.23;;
357;SDS011;167;47.558;7.602;2023-06-24T02:18:30;5.37;;;4.97;;
357;SDS011;167;47.558;7.602;2023-06-24T02:20:56;6.20;;;5.60;;
357;SDS011;167;47.558;7.602;2023-06-24T02:23:22;5.60;;;5.10;;
357;SDS011;167;47.558;7.602;2023-06-24T02:25:49;5.60;;;5.10;;
357;SDS011;167;47.558;7.602;2023-06-24T02:28:15;5.10;;;4.80;;
357;SDS011;167;47.558;7.602;2023-06-24T02:30:42;5.87;;;5.57;;
357;SDS011;167;47.558;7.602;2023-06-24T02:33:09;5.20;;;4.70;;
357;SDS011;167;47.558;7.602;2023-06-24T02:35:36;5.83;;;5.27;;
357;SDS011;167;47.558;7.602;2023-06-24T02:38:02;5.60;;;5.10;;
357;SDS011;167;47.558;7.602;2023-06-24T02:40:28;5.53;;;5.13;;
357;SDS011;167;47.558;7.602;2023-06-24T02:42:55;6.43;;;5.83;;
357;SDS011;167;47.558;7.602;2023-06-24T02:45:21;5.70;;;5.30;;
357;SDS011;167;47.558;7.602;2023-06-24T02:47:47;5.67;;;5.27;;
357;SDS011;167;47.558;7.602;2023-06-24T02:50:14;5.50;;;5.10;;
357;SDS011;167;47.558;7.602;2023-06-24T02:52:40;5.57;;;5.07;;
357;SDS011;167;47.558;7.602;2023-06-24T02:55:06;6.20;;;5.70;;
357;SDS011;167;47.558;7.602;2023-06-24T02:57:33;7.30;;;6.70;;
357;SDS011;167;47.558;7.602;2023-06-24T03:00:01;5.17;;;4.77;;
357;SDS011;167;47.558;7.602;2023-06-24T03:02:28;5.90;;;5.40;;
357;SDS011;167;47.558;7.602;2023-06-24T03:04:54;6.63;;;6.10;;
357;SDS011;167;47.558;7.602;2023-06-24T03:07:22;5.57;;;5.10;;
357;SDS011;167;47.558;7.602;2023-06-24T03:09:48;6.27;;;5.87;;
357;SDS011;167;47.558;7.602;2023-06-24T03:12:14;7.13;;;6.53;;
357;SDS011;167;47.558;7.602;2023-06-24T03:14:40;5.60;;;5.20;;
357;SDS011;167;47.558;7.602;2023-06-24T03:17:05;6.73;;;5.53;;
357;SDS011;167;47.558;7.602;2023-06-24T03:19:31;7.50;;;5.80;;
357;SDS011;167;47.558;7.602;2023-06-24T03:21:57;5.03;;;4.73;;
357;SDS011;167;47.558;7.602;2023-06-24T03:24:23;6.23;;;5.17;;
357;SDS011;167;47.558;7.602;2023-06-24T03:26:49;6.00;;;5.60;;
357;SDS011;167;47.558;7.602;2023-06-24T03:29:21;6.50;;;5.90;;
357;SDS011;167;47.558;7.602;2023-06-24T03:31:47;5.67;;;5.20;;
357;SDS011;167;47.558;7.602;2023-06-24T03:34:13;5.93;;;5.20;;
357;SDS011;167;47.558;7.602;2023-06-24T03:36:41;5.40;;;5.10;;
357;SDS011;167;47.558;7.602;2023-06-24T03:39:07;7.00;;;6.40;;
357;SDS011;167;47.558;7.602;2023-06-24T03:41:33;5.77;;;5.27;;
357;SDS011;167;47.558;7.602;2023-06-24T03:43:59;6.33;;;5.80;;
357;SDS011;167;47.558;7.602;2023-06-24T03:46:25;6.13;;;5.63;;
357;SDS011;167;47.558;7.602;2023-06-24T03:48:53;5.60;;;5.20;;
357;SDS011;167;47.558;7.602;2023-06-24T03:51:19;6.10;;;5.70;;
357;SDS011;167;47.558;7.602;2023-06-24T03:53:45;5.33;;;4.90;;
357;SDS011;167;47.558;7.602;2023-06-24T03:56:11;6.33;;;5.30;;
357;SDS011;167;47.558;7.602;2023-06-24T03:58:37;6.00;;;5.40;;
357;SDS011;167;47.558;7.602;2023-06-24T04:01:03;5.90;;;5.50;;
357;SDS011;167;47.558;7.602;2023-06-24T04:03:29;5.03;;;4.73;;
357;SDS011;167;47.558;7.602;2023-06-24T04:05:56;5.57;;;5.17;;
357;SDS011;167;47.558;7.602;2023-06-24T04:08:22;4.60;;;4.30;;
357;SDS011;167;47.558;7.602;2023-06-24T04:10:50;5.13;;;4.83;;
357;SDS011;167;47.558;7.602;2023-06-24T04:13:16;5.47;;;5.07;;
357;SDS011;167;47.558;7.602;2023-06-24T04:15:43;6.40;;;5.70;;
357;SDS011;167;47.558;7.602;2023-06-24T04:18:09;5.03;;;4.63;;
357;SDS011;167;47.558;7.602;2023-06-24T04:20:35;5.80;;;5.03;;
357;SDS011;167;47.558;7.602;2023-06-24T04:23:01;5.47;;;4.97;;
357;SDS011;167;47.558;7.602;2023-06-24T04:25:27;4.13;;;3.93;;
357;SDS011;167;47.558;7.602;2023-06-24T04:27:53;4.67;;;4.37;;
357;SDS011;167;47.558;7.602;2023-06-24T04:30:19;4.53;;;4.27;;
357;SDS011;167;47.558;7.602;2023-06-24T04:32:45;4.50;;;4.20;;
357;SDS011;167;47.558;7.602;2023-06-24T04:35:11;4.23;;;4.00;;
357;SDS011;167;47.558;7.602;2023-06-24T04:37:37;5.27;;;4.97;;
357;SDS011;167;47.558;7.602;2023-06-24T04:40:03;4.90;;;4.60;;
357;SDS011;167;47.558;7.602;2023-06-24T04:42:29;6.23;;;5.40;;
357;SDS011;167;47.558;7.602;2023-06-24T04:44:55;4.80;;;4.50;;
357;SDS011;167;47.558;7.602;2023-06-24T04:47:21;5.90;;;5.40;;
357;SDS011;167;47.558;7.602;2023-06-24T04:49:47;4.80;;;4.50;;
357;SDS011;167;47.558;7.602;2023-06-24T04:52:13;5.73;;;5.23;;
357;SDS011;167;47.558;7.602;2023-06-24T04:54:39;5.67;;;5.27;;
357;SDS011;167;47.558;7.602;2023-06-24T04:57:07;6.20;;;5.70;;
357;SDS011;167;47.558;7.602;2023-06-24T04:59:33;6.73;;;6.23;;
357;SDS011;167;47.558;7.602;2023-06-24T05:02:00;6.17;;;5.57;;
357;SDS011;167;47.558;7.602;2023-06-24T05:04:25;5.60;;;5.20;;
357;SDS011;167;47.558;7.602;2023-06-24T05:06:52;6.80;;;6.13;;
357;SDS011;167;47.558;7.602;2023-06-24T05:09:18;5.73;;;5.23;;
357;SDS011;167;47.558;7.602;2023-06-24T05:11:44;6.07;;;5.47;;
357;SDS011;167;47.558;7.602;2023-06-24T05:14:10;4.50;;;4.20;;
357;SDS011;167;47.558;7.602;2023-06-24T05:16:35;5.27;;;4.93;;
357;SDS011;167;47.558;7.602;2023-06-24T05:19:02;5.80;;;5.40;;
357;SDS011;167;47.558;7.602;2023-06-24T05:21:28;6.07;;;5.67;;
357;SDS011;167;47.558;7.602;2023-06-24T05:23:54;5.20;;;4.80;;
357;SDS011;167;47.558;7.602;2023-06-24T05:26:19;5.27;;;4.90;;
357;SDS011;167;47.558;7.602;2023-06-24T05:28:45;5.83;;;5.43;;
357;SDS011;167;47.558;7.602;2023-06-24T05:31:11;6.10;;;5.67;;
357;SDS011;167;47.558;7.602;2023-06-24T05:33:37;5.77;;;5.30;;
357;SDS011;167;47.558;7.602;2023-06-24T05:36:03;6.50;;;6.00;;
357;SDS011;167;47.558;7.602;2023-06-24T05:38:29;6.40;;;5.90;;
357;SDS011;167;47.558;7.602;2023-06-24T05:40:55;5.50;;;5.10;;
357;SDS011;167;47.558;7.602;2023-06-24T05:43:21;5.53;;;5.13;;
357;SDS011;167;47.558;7.602;2023-06-24T05:45:47;5.63;;;5.23;;
357;SDS011;167;47.558;7.602;2023-06-24T05:48:13;5.47;;;5.07;;
357;SDS011;167;47.558;7.602;2023-06-24T05:50:39;5.60;;;5.20;;
357;SDS011;167;47.558;7.602;2023-06-24T05:53:05;6.67;;;6.03;;
357;SDS011;167;47.558;7.602;2023-06-24T05:55:31;5.43;;;4.93;;
357;SDS011;167;47.558;7.602;2023-06-24T05:57:57;5.93;;;5.53;;
357;SDS011;167;47.558;7.602;2023-06-24T06:00:23;5.90;;;5.20;;
357;SDS011;167;47.558;7.602;2023-06-24T06:02:49;5.37;;;4.97;;
357;SDS011;167;47.558;7.602;2023-06-24T06:05:15;6.20;;;5.80;;
357;SDS011;167;47.558;7.602;2023-06-24T06:07:41;5.83;;;5.33;;
357;SDS011;167;47.558;7.602;2023-06-24T06:10:08;5.70;;;5.20;;
357;SDS011;167;47.558;7.602;2023-06-24T06:12:35;5.03;;;4.70;;
357;SDS011;167;47.558;7.602;2023-06-24T06:15:01;7.60;;;5.33;;
357;SDS011;167;47.558;7.602;2023-06-24T06:17:27;5.90;;;5.50;;
357;SDS011;167;47.558;7.602;2023-06-24T06:19:53;5.60;;;5.20;;
357;SDS011;167;47.558;7.602;2023-06-24T06:22:19;5.57;;;5.20;;
357;SDS011;167;47.558;7.602;2023-06-24T06:24:45;5.93;;;5.43;;
357;SDS011;167;47.558;7.602;2023-06-24T06:27:12;5.67;;;5.27;;
357;SDS011;167;47.558;7.602;2023-06-24T06:29:38;5.90;;;5.30;;
357;SDS011;167;47.558;7.602;2023-06-24T06:32:04;5.03;;;4.73;;
357;SDS011;167;47.558;7.602;2023-06-24T06:34:30;5.40;;;5.00;;
357;SDS011;167;47.558;7.602;2023-06-24T06:36:56;5.60;;;5.20;;
357;SDS011;167;47.558;7.602;2023-06-24T06:39:22;5.80;;;5.40;;
357;SDS011;167;47.558;7.602;2023-06-24T06:41:48;5.57;;;5.17;;
357;SDS011;167;47.558;7.602;2023-06-24T06:44:14;5.77;;;5.37;;
357;SDS011;167;47.558;7.602;2023-06-24T06:46:40;5.57;;;5.17;;
357;SDS011;167;47.558;7.602;2023-06-24T06:49:06;6.63;;;5.83;;
357;SDS011;167;47.558;7.602;2023-06-24T06:51:32;5.53;;;5.13;;
357;SDS011;167;47.558;7.602;2023-06-24T06:53:59;5.63;;;4.70;;
357;SDS011;167;47.558;7.602;2023-06-24T06:56:25;5.40;;;5.00;;
357;SDS011;167;47.558;7.602;2023-06-24T06:58:51;5.00;;;4.70;;
357;SDS011;167;47.558;7.602;2023-06-24T07:01:17;5.60;;;5.20;;
357;SDS011;167;47.558;7.602;2023-06-24T07:03:43;5.60;;;5.20;;
357;SDS011;167;47.558;7.602;2023-06-24T07:06:09;4.47;;;4.17;;
357;SDS011;167;47.558;7.602;2023-06-24T07:08:35;4.53;;;4.23;;
357;SDS011;167;47.558;7.602;2023-06-24T07:11:01;5.80;;;5.40;;
357;SDS011;167;47.558;7.602;2023-06-24T07:13:27;4.60;;;4.30;;
357;SDS011;167;47.558;7.602;2023-06-24T07:15:53;4.23;;;4.03;;
357;SDS011;167;47.558;7.602;2023-06-24T07:18:19;5.20;;;4.80;;
357;SDS011;167;47.558;7.602;2023-06-24T07:20:45;4.83;;;4.53;;
357;SDS011;167;47.558;7.602;2023-06-24T07:23:11;4.53;;;4.23;;
357;SDS011;167;47.558;7.602;2023-06-24T07:25:37;3.87;;;3.67;;
357;SDS011;167;47.558;7.602;2023-06-24T07:28:03;4.77;;;4.37;;
357;SDS011;167;47.558;7.602;2023-06-24T07:30:29;4.60;;;4.40;;
357;SDS011;167;47.558;7.602;2023-06-24T07:32:55;4.87;;;4.47;;
357;SDS011;167;47.558;7.602;2023-06-24T07:35:21;4.37;;;4.07;;
357;SDS011;167;47.558;7.602;2023-06-24T07:37:47;4.30;;;4.00;;
357;SDS011;167;47.558;7.602;2023-06-24T07:40:13;3.83;;;3.63;;
357;SDS011;167;47.558;7.602;2023-06-24T07:42:40;4.50;;;4.20;;
357;SDS011;167;47.558;7.602;2023-06-24T07:45:06;4.07;;;3.67;;
357;SDS011;167;47.558;7.602;2023-06-24T07:47:32;4.30;;;4.10;;
357;SDS011;167;47.558;7.602;2023-06-24T07:49:58;3.80;;;3.43;;
357;SDS011;167;47.558;7.602;2023-06-24T07:52:24;4.30;;;4.00;;
357;SDS011;167;47.558;7.602;2023-06-24T07:54:50;3.40;;;3.30;;
357;SDS011;167;47.558;7.602;2023-06-24T07:57:16;3.67;;;3.53;;
357;SDS011;167;47.558;7.602;2023-06-24T07:59:42;3.83;;;3.50;;
357;SDS011;167;47.558;7.602;2023-06-24T08:02:08;3.07;;;2.87;;
357;SDS011;167;47.558;7.602;2023-06-24T08:04:34;3.20;;;3.10;;
357;SDS011;167;47.558;7.602;2023-06-24T08:07:00;3.00;;;2.90;;
357;SDS011;167;47.558;7.602;2023-06-24T08:09:26;3.03;;;2.83;;
357;SDS011;167;47.558;7.602;2023-06-24T08:11:52;3.03;;;2.93;;
357;SDS011;167;47.558;7.602;2023-06-24T08:14:18;2.93;;;2.83;;
357;SDS011;167;47.558;7.602;2023-06-24T08:16:43;2.60;;;2.50;;
357;SDS011;167;47.558;7.602;2023-06-24T08:19:09;2.23;;;2.17;;
357;SDS011;167;47.558;7.602;2023-06-24T08:21:35;2.40;;;2.30;;
357;SDS011;167;47.558;7.602;2023-06-24T08:24:02;2.20;;;2.17;;
357;SDS011;167;47.558;7.602;2023-06-24T08:26:29;2.00;;;2.00;;
357;SDS011;167;47.558;7.602;2023-06-24T08:28:56;2.03;;;2.03;;
357;SDS011;167;47.558;7.602;2023-06-24T08:31:23;1.88;;;1.77;;
357;SDS011;167;47.558;7.602;2023-06-24T08:33:51;2.05;;;1.95;;
357;SDS011;167;47.558;7.602;2023-06-24T08:36:18;1.67;;;1.50;;
357;SDS011;167;47.558;7.602;2023-06-24T08:38:44;1.80;;;1.80;;
357;SDS011;167;47.558;7.602;2023-06-24T08:41:10;1.67;;;1.67;;
357;SDS011;167;47.558;7.602;2023-06-24T08:43:36;1.90;;;1.90;;
357;SDS011;167;47.558;7.602;2023-06-24T08:46:03;1.77;;;1.77;;
357;SDS011;167;47.558;7.602;2023-06-24T08:48:29;2.20;;;2.10;;
357;SDS011;167;47.558;7.602;2023-06-24T08:50:56;2.70;;;2.60;;
357;SDS011;167;47.558;7.602;2023-06-24T08:53:23;2.13;;;2.13;;
357;SDS011;167;47.558;7.602;2023-06-24T08:55:52;2.47;;;2.37;;
357;SDS011;167;47.558;7.602;2023-06-24T08:58:19;2.00;;;1.90;;
357;SDS011;167;47.558;7.602;2023-06-24T09:00:45;2.10;;;2.00;;
357;SDS011;167;47.558;7.602;2023-06-24T09:03:11;2.70;;;2.60;;
357;SDS011;167;47.558;7.602;2023-06-24T09:05:37;2.70;;;2.20;;
357;SDS011;167;47.558;7.602;2023-06-24T09:08:03;2.70;;;2.60;;
357;SDS011;167;47.558;7.602;2023-06-24T09:10:33;2.77;;;2.67;;
357;SDS011;167;47.558;7.602;2023-06-24T09:13:02;2.50;;;2.40;;
357;SDS011;167;47.558;7.602;2023-06-24T09:15:32;2.57;;;2.40;;
357;SDS011;167;47.558;7.602;2023-06-24T09:17:58;2.87;;;2.77;;
357;SDS011;167;47.558;7.602;2023-06-24T09:20:28;2.53;;;2.43;;
357;SDS011;167;47.558;7.602;2023-06-24T09:23:13;2.50;;;2.27;;
357;SDS011;167;47.558;7.602;2023-06-24T09:25:39;2.47;;;2.37;;
357;SDS011;167;47.558;7.602;2023-06-24T09:28:05;2.13;;;2.10;;
357;SDS011;167;47.558;7.602;2023-06-24T09:30:31;2.57;;;2.43;;
357;SDS011;167;47.558;7.602;2023-06-24T09:32:57;2.47;;;2.27;;
357;SDS011;167;47.558;7.602;2023-06-24T09:35:26;2.30;;;2.30;;
357;SDS011;167;47.558;7.602;2023-06-24T09:37:53;2.30;;;2.20;;
357;SDS011;167;47.558;7.602;2023-06-24T09:40:19;2.07;;;2.07;;
357;SDS011;167;47.558;7.602;2023-06-24T09:42:49;2.10;;;2.10;;
357;SDS011;167;47.558;7.602;2023-06-24T09:45:18;1.70;;;1.70;;
357;SDS011;167;47.558;7.602;2023-06-24T09:47:44;2.20;;;2.20;;
357;SDS011;167;47.558;7.602;2023-06-24T09:50:10;2.47;;;2.37;;
357;SDS011;167;47.558;7.602;2023-06-24T09:52:36;2.67;;;2.57;;
357;SDS011;167;47.558;7.602;2023-06-24T09:55:03;2.60;;;2.30;;
357;SDS011;167;47.558;7.602;2023-06-24T09:57:29;2.33;;;2.23;;
357;SDS011;167;47.558;7.602;2023-06-24T09:59:56;1.60;;;1.60;;
357;SDS011;167;47.558;7.602;2023-06-24T16:05:50;2.70;;;2.60;;
357;SDS011;167;47.558;7.602;2023-06-24T16:08:16;2.60;;;2.50;;
357;SDS011;167;47.558;7.602;2023-06-24T16:10:42;2.40;;;2.30;;
357;SDS011;167;47.558;7.602;2023-06-24T16:13:08;2.60;;;2.50;;
357;SDS011;167;47.558;7.602;2023-06-24T16:15:34;2.43;;;2.33;;
357;SDS011;167;47.558;7.602;2023-06-24T16:18:00;2.63;;;2.53;;
357;SDS011;167;47.558;7.602;2023-06-24T16:20:26;2.50;;;2.40;;
357;SDS011;167;47.558;7.602;2023-06-24T16:22:52;2.53;;;2.43;;
357;SDS011;167;47.558;7.602;2023-06-24T16:25:18;5.27;;;4.00;;
357;SDS011;167;47.558;7.602;2023-06-24T16:27:45;3.40;;;3.20;;
357;SDS011;167;47.558;7.602;2023-06-24T16:30:11;2.80;;;2.70;;
357;SDS011;167;47.558;7.602;2023-06-24T16:32:37;2.30;;;2.20;;
357;SDS011;167;47.558;7.602;2023-06-24T16:35:03;3.00;;;2.70;;
357;SDS011;167;47.558;7.602;2023-06-24T16:37:29;2.60;;;2.40;;
357;SDS011;167;47.558;7.602;2023-06-24T16:39:55;2.90;;;2.80;;
357;SDS011;167;47.558;7.602;2023-06-24T16:42:20;2.77;;;2.63;;
357;SDS011;167;47.558;7.602;2023-06-24T16:44:46;2.43;;;2.33;;
357;SDS011;167;47.558;7.602;2023-06-24T16:47:13;2.63;;;2.53;;
357;SDS011;167;47.558;7.602;2023-06-24T16:49:39;2.57;;;2.47;;
357;SDS011;167;47.558;7.602;2023-06-24T16:52:05;2.97;;;2.77;;
357;SDS011;167;47.558;7.602;2023-06-24T16:54:31;3.07;;;2.87;;
357;SDS011;167;47.558;7.602;2023-06-24T16:56:56;2.10;;;2.00;;
357;SDS011;167;47.558;7.602;2023-06-24T16:59:22;2.80;;;2.60;;
357;SDS011;167;47.558;7.602;2023-06-24T17:01:48;4.50;;;4.20;;
357;SDS011;167;47.558;7.602;2023-06-24T17:04:14;3.30;;;3.10;;
357;SDS011;167;47.558;7.602;2023-06-24T17:06:40;3.60;;;3.10;;
357;SDS011;167;47.558;7.602;2023-06-24T17:09:06;5.60;;;3.00;;
357;SDS011;167;47.558;7.602;2023-06-24T17:11:32;2.97;;;2.87;;
357;SDS011;167;47.558;7.602;2023-06-24T17:13:58;2.57;;;2.47;;
357;SDS011;167;47.558;7.602;2023-06-24T17:16:24;2.93;;;2.83;;
357;SDS011;167;47.558;7.602;2023-06-24T17:18:50;3.00;;;2.87;;
357;SDS011;167;47.558;7.602;2023-06-24T17:21:16;2.50;;;2.40;;
357;SDS011;167;47.558;7.602;2023-06-24T17:23:42;2.70;;;2.50;;
357;SDS011;167;47.558;7.602;2023-06-24T17:26:08;2.93;;;2.73;;
357;SDS011;167;47.558;7.602;2023-06-24T17:28:34;2.83;;;2.63;;
357;SDS011;167;47.558;7.602;2023-06-24T17:31:00;8.23;;;2.83;;
357;SDS011;167;47.558;7.602;2023-06-24T17:33:26;3.07;;;2.97;;
357;SDS011;167;47.558;7.602;2023-06-24T17:35:53;2.67;;;2.50;;
357;SDS011;167;47.558;7.602;2023-06-24T17:38:19;3.10;;;2.90;;
357;SDS011;167;47.558;7.602;2023-06-24T17:40:45;3.63;;;3.43;;
357;SDS011;167;47.558;7.602;2023-06-24T17:43:11;3.00;;;2.87;;
357;SDS011;167;47.558;7.602;2023-06-24T17:45:37;2.37;;;2.27;;
357;SDS011;167;47.558;7.602;2023-06-24T17:48:03;2.53;;;2.43;;
357;SDS011;167;47.558;7.602;2023-06-24T17:50:30;2.87;;;2.77;;
357;SDS011;167;47.558;7.602;2023-06-24T17:52:57;2.90;;;2.80;;
357;SDS011;167;47.558;7.602;2023-06-24T17:55:23;2.50;;;2.40;;
357;SDS011;167;47.558;7.602;2023-06-24T17:57:51;2.67;;;2.50;;
357;SDS011;167;47.558;7.602;2023-06-24T18:00:17;2.30;;;2.20;;
357;SDS011;167;47.558;7.602;2023-06-24T18:02:43;2.90;;;2.80;;
357;SDS011;167;47.558;7.602;2023-06-24T18:05:09;2.70;;;2.60;;
357;SDS011;167;47.558;7.602;2023-06-24T18:07:35;2.80;;;2.70;;
357;SDS011;167;47.558;7.602;2023-06-24T18:10:01;2.50;;;2.40;;
357;SDS011;167;47.558;7.602;2023-06-24T18:12:27;3.10;;;2.60;;
357;SDS011;167;47.558;7.602;2023-06-24T18:14:54;2.53;;;2.43;;
357;SDS011;167;47.558;7.602;2023-06-24T18:17:20;2.70;;;2.60;;
357;SDS011;167;47.558;7.602;2023-06-24T18:19:45;2.67;;;2.57;;
357;SDS011;167;47.558;7.602;2023-06-24T18:22:12;3.20;;;3.00;;
357;SDS011;167;47.558;7.602;2023-06-24T18:24:38;2.97;;;2.60;;
357;SDS011;167;47.558;7.602;2023-06-24T18:27:04;3.17;;;2.97;;
357;SDS011;167;47.558;7.602;2023-06-24T18:29:30;3.00;;;2.80;;
357;SDS011;167;47.558;7.602;2023-06-24T18:31:56;2.80;;;2.60;;
357;SDS011;167;47.558;7.602;2023-06-24T18:34:22;3.13;;;3.03;;
357;SDS011;167;47.558;7.602;2023-06-24T18:36:49;3.43;;;2.90;;
357;SDS011;167;47.558;7.602;2023-06-24T18:39:15;2.80;;;2.70;;
357;SDS011;167;47.558;7.602;2023-06-24T18:41:41;2.80;;;2.70;;
357;SDS011;167;47.558;7.602;2023-06-24T18:44:07;2.70;;;2.60;;
357;SDS011;167;47.558;7.602;2023-06-24T18:46:34;2.70;;;2.60;;
357;SDS011;167;47.558;7.602;2023-06-24T18:49:00;2.53;;;2.43;;
357;SDS011;167;47.558;7.602;2023-06-24T18:51:26;3.30;;;2.57;;
357;SDS011;167;47.558;7.602;2023-06-24T18:53:52;2.60;;;2.50;;
357;SDS011;167;47.558;7.602;2023-06-24T18:56:18;3.37;;;3.17;;
357;SDS011;167;47.558;7.602;2023-06-24T18:58:44;2.63;;;2.53;;
357;SDS011;167;47.558;7.602;2023-06-24T19:01:10;3.20;;;3.00;;
357;SDS011;167;47.558;7.602;2023-06-24T19:03:36;3.23;;;3.03;;
357;SDS011;167;47.558;7.602;2023-06-24T19:06:04;3.10;;;2.90;;
357;SDS011;167;47.558;7.602;2023-06-24T19:08:30;3.30;;;3.10;;
357;SDS011;167;47.558;7.602;2023-06-24T19:10:55;3.00;;;2.90;;
357;SDS011;167;47.558;7.602;2023-06-24T19:13:21;3.00;;;2.90;;
357;SDS011;167;47.558;7.602;2023-06-24T19:15:47;2.73;;;2.63;;
357;SDS011;167;47.558;7.602;2023-06-24T19:18:13;3.53;;;3.33;;
357;SDS011;167;47.558;7.602;2023-06-24T19:20:39;3.57;;;3.37;;
357;SDS011;167;47.558;7.602;2023-06-24T19:23:09;3.53;;;3.33;;
357;SDS011;167;47.558;7.602;2023-06-24T19:25:35;3.20;;;3.00;;
357;SDS011;167;47.558;7.602;2023-06-24T19:28:01;4.37;;;4.07;;
357;SDS011;167;47.558;7.602;2023-06-24T19:30:27;3.20;;;3.10;;
357;SDS011;167;47.558;7.602;2023-06-24T19:32:53;3.70;;;3.47;;
357;SDS011;167;47.558;7.602;2023-06-24T19:35:19;3.50;;;3.30;;
357;SDS011;167;47.558;7.602;2023-06-24T19:37:45;3.63;;;3.43;;
357;SDS011;167;47.558;7.602;2023-06-24T19:40:11;3.50;;;3.33;;
357;SDS011;167;47.558;7.602;2023-06-24T19:42:37;3.43;;;3.23;;
357;SDS011;167;47.558;7.602;2023-06-24T19:45:04;3.00;;;2.90;;
357;SDS011;167;47.558;7.602;2023-06-24T19:47:30;3.17;;;3.00;;
357;SDS011;167;47.558;7.602;2023-06-24T19:49:56;3.57;;;3.40;;
357;SDS011;167;47.558;7.602;2023-06-24T19:52:23;3.73;;;3.43;;
357;SDS011;167;47.558;7.602;2023-06-24T19:54:50;3.70;;;3.50;;
357;SDS011;167;47.558;7.602;2023-06-24T19:57:19;3.40;;;3.23;;
357;SDS011;167;47.558;7.602;2023-06-24T19:59:45;3.70;;;3.50;;
357;SDS011;167;47.558;7.602;2023-06-24T20:02:11;3.70;;;3.40;;
357;SDS011;167;47.558;7.602;2023-06-24T20:04:37;3.50;;;3.20;;
357;SDS011;167;47.558;7.602;2023-06-24T20:07:03;3.53;;;3.23;;
357;SDS011;167;47.558;7.602;2023-06-24T20:09:29;4.10;;;3.70;;
357;SDS011;167;47.558;7.602;2023-06-24T20:11:55;3.40;;;3.20;;
357;SDS011;167;47.558;7.602;2023-06-24T20:14:21;3.30;;;3.20;;
357;SDS011;167;47.558;7.602;2023-06-24T20:16:47;3.67;;;3.47;;
357;SDS011;167;47.558;7.602;2023-06-24T20:19:13;4.20;;;3.90;;
357;SDS011;167;47.558;7.602;2023-06-24T20:21:39;4.60;;;4.40;;
357;SDS011;167;47.558;7.602;2023-06-24T20:24:05;4.20;;;4.00;;
357;SDS011;167;47.558;7.602;2023-06-24T20:26:32;4.33;;;4.13;;
357;SDS011;167;47.558;7.602;2023-06-24T20:28:58;3.97;;;3.77;;
357;SDS011;167;47.558;7.602;2023-06-24T20:31:24;4.83;;;4.53;;
357;SDS011;167;47.558;7.602;2023-06-24T20:33:50;4.70;;;4.40;;
357;SDS011;167;47.558;7.602;2023-06-24T20:36:16;5.07;;;4.77;;
357;SDS011;167;47.558;7.602;2023-06-24T20:38:42;4.43;;;4.13;;
357;SDS011;167;47.558;7.602;2023-06-24T20:41:18;4.40;;;4.20;;
357;SDS011;167;47.558;7.602;2023-06-24T20:43:44;3.60;;;3.40;;
357;SDS011;167;47.558;7.602;2023-06-24T20:46:10;5.00;;;4.57;;
357;SDS011;167;47.558;7.602;2023-06-24T20:48:36;4.73;;;4.33;;
357;SDS011;167;47.558;7.602;2023-06-24T20:51:02;4.97;;;4.67;;
357;SDS011;167;47.558;7.602;2023-06-24T20:53:28;6.23;;;5.73;;
357;SDS011;167;47.558;7.602;2023-06-24T20:55:54;5.33;;;5.03;;
357;SDS011;167;47.558;7.602;2023-06-24T20:58:20;5.03;;;4.73;;
357;SDS011;167;47.558;7.602;2023-06-24T21:00:46;6.90;;;5.73;;
357;SDS011;167;47.558;7.602;2023-06-24T21:03:12;5.47;;;5.07;;
357;SDS011;167;47.558;7.602;2023-06-24T21:05:38;4.83;;;4.53;;
357;SDS011;167;47.558;7.602;2023-06-24T21:08:04;6.23;;;5.73;;
357;SDS011;167;47.558;7.602;2023-06-24T21:10:30;5.97;;;5.53;;
357;SDS011;167;47.558;7.602;2023-06-24T21:12:56;6.10;;;5.70;;
357;SDS011;167;47.558;7.602;2023-06-24T21:15:22;6.60;;;6.20;;
357;SDS011;167;47.558;7.602;2023-06-24T21:17:48;5.53;;;5.13;;
357;SDS011;167;47.558;7.602;2023-06-24T21:20:14;5.37;;;4.97;;
357;SDS011;167;47.558;7.602;2023-06-24T21:22:40;5.67;;;5.17;;
357;SDS011;167;47.558;7.602;2023-06-24T21:25:06;5.60;;;5.20;;
357;SDS011;167;47.558;7.602;2023-06-24T21:27:32;4.60;;;4.20;;
357;SDS011;167;47.558;7.602;2023-06-24T21:29:58;4.77;;;4.47;;
357;SDS011;167;47.558;7.602;2023-06-24T21:32:24;5.00;;;4.70;;
357;SDS011;167;47.558;7.602;2023-06-24T21:34:50;4.37;;;4.17;;
357;SDS011;167;47.558;7.602;2023-06-24T21:37:16;4.50;;;4.20;;
357;SDS011;167;47.558;7.602;2023-06-24T21:39:42;4.73;;;4.43;;
357;SDS011;167;47.558;7.602;2023-06-24T21:42:08;4.37;;;4.07;;
357;SDS011;167;47.558;7.602;2023-06-24T21:44:34;4.83;;;4.53;;
357;SDS011;167;47.558;7.602;2023-06-24T21:46:59;5.53;;;4.37;;
357;SDS011;167;47.558;7.602;2023-06-24T21:49:25;4.60;;;4.30;;